createdAt,value
2023-04-18T00:03:30.032Z,10.80
2023-04-18T00:07:31.946Z,9.80
2023-04-18T00:11:34.768Z,10.15
2023-04-18T00:15:36.904Z,9.95
2023-04-18T00:19:43.240Z,11.48
2023-04-18T00:23:46.055Z,13.27
2023-04-18T00:27:47.692Z,13.95
2023-04-18T00:31:49.416Z,11.23
2023-04-18T00:35:51.069Z,10.77
2023-04-18T00:39:53.861Z,11.12
2023-04-18T00:43:55.600Z,12.70
2023-04-18T00:47:57.355Z,11.23
2023-04-18T00:51:59.442Z,13.48
2023-04-18T00:56:01.198Z,12.98
2023-04-18T01:00:09.655Z,10.30
2023-04-18T01:04:11.795Z,11.18
2023-04-18T01:08:14.500Z,12.82
2023-04-18T01:12:16.522Z,11.12
2023-04-18T01:16:18.299Z,14.07
2023-04-18T01:20:21.698Z,14.05
2023-04-18T01:24:25.734Z,13.45
2023-04-18T01:28:27.662Z,13.75
2023-04-18T01:32:29.574Z,13.48
2023-04-18T01:36:31.938Z,15.30
2023-04-18T01:40:33.641Z,10.48
2023-04-18T01:44:35.284Z,12.37
2023-04-18T01:48:36.961Z,15.88
2023-04-18T01:52:38.675Z,11.90
2023-04-18T01:56:40.373Z,11.73
2023-04-18T02:00:42.029Z,13.90
2023-04-18T02:04:43.655Z,12.63
2023-04-18T02:08:45.294Z,11.27
2023-04-18T02:12:47.093Z,11.12
2023-04-18T02:16:48.818Z,11.73
2023-04-18T02:20:51.777Z,12.48
2023-04-18T02:24:53.443Z,15.00
2023-04-18T02:28:55.578Z,13.38
2023-04-18T02:32:57.288Z,11.70
2023-04-18T02:36:58.996Z,16.33
2023-04-18T02:41:00.645Z,14.82
2023-04-18T02:45:02.318Z,12.52
2023-04-18T02:49:03.956Z,11.12
2023-04-18T02:53:05.654Z,11.23
2023-04-18T02:57:07.350Z,11.18
2023-04-18T03:01:09.187Z,11.35
2023-04-18T03:05:10.959Z,14.57
2023-04-18T03:09:12.678Z,12.20
2023-04-18T03:13:15.226Z,11.15
2023-04-18T03:17:17.169Z,12.15
2023-04-18T03:21:19.410Z,9.45
2023-04-18T03:25:21.075Z,9.50
2023-04-18T03:29:22.771Z,13.48
2023-04-18T03:33:24.553Z,10.82
2023-04-18T03:37:26.755Z,9.63
2023-04-18T03:41:28.493Z,9.50
2023-04-18T03:45:30.375Z,10.35
2023-04-18T03:49:32.126Z,11.00
2023-04-18T03:53:33.794Z,9.13
2023-04-18T03:57:35.423Z,8.30
2023-04-18T04:01:37.420Z,9.63
2023-04-18T04:05:39.158Z,8.57
2023-04-18T04:09:40.824Z,10.00
2023-04-18T04:13:42.462Z,9.95
2023-04-18T04:17:44.247Z,9.32
2023-04-18T04:21:45.924Z,9.93
2023-04-18T04:25:47.983Z,10.18
2023-04-18T04:29:49.681Z,10.90
2023-04-18T04:33:51.373Z,10.43
2023-04-18T04:37:53.043Z,11.18
2023-04-18T04:41:57.483Z,10.38
2023-04-18T04:45:59.688Z,9.95
2023-04-18T04:50:01.424Z,12.57
2023-04-18T04:54:03.490Z,11.60
2023-04-18T04:58:05.149Z,12.88
2023-04-18T05:02:06.946Z,12.65
2023-04-18T05:06:08.884Z,14.52
2023-04-18T05:10:10.816Z,14.40
2023-04-18T05:14:12.841Z,12.98
2023-04-18T05:18:14.754Z,12.43
2023-04-18T05:22:16.446Z,13.38
2023-04-18T05:26:18.660Z,15.23
2023-04-18T05:30:20.431Z,14.85
2023-04-18T05:34:22.136Z,14.85
2023-04-18T05:38:24.217Z,14.18
2023-04-18T05:42:25.891Z,16.08
2023-04-18T05:46:27.663Z,15.82
2023-04-18T05:50:29.377Z,14.38
2023-04-18T05:54:31.150Z,13.88
2023-04-18T05:58:33.345Z,16.70
2023-04-18T06:02:35.145Z,13.88
2023-04-18T06:06:36.865Z,15.68
2023-04-18T06:10:39.237Z,16.08
2023-04-18T06:14:41.020Z,14.05
2023-04-18T06:18:42.652Z,14.38
2023-04-18T06:22:44.321Z,15.15
2023-04-18T06:26:46.370Z,13.25
2023-04-18T06:30:48.020Z,11.95
2023-04-18T06:34:50.228Z,18.37
2023-04-18T06:38:52.048Z,13.35
2023-04-18T06:42:53.775Z,13.68
2023-04-18T06:46:55.861Z,12.95
2023-04-18T06:50:57.572Z,11.70
2023-04-18T06:54:59.301Z,11.10
2023-04-18T06:59:01.560Z,12.32
2023-04-18T07:03:11.103Z,10.98
2023-04-18T07:07:13.324Z,12.75
2023-04-18T07:11:15.633Z,10.95
2023-04-18T07:15:17.396Z,11.35
2023-04-18T07:19:19.035Z,12.73
2023-04-18T07:23:20.718Z,11.55
2023-04-18T07:27:22.366Z,13.43
2023-04-18T07:31:25.624Z,11.90
2023-04-18T07:35:27.363Z,11.93
2023-04-18T07:39:29.167Z,14.25
2023-04-18T07:43:31.009Z,14.07
2023-04-18T07:47:33.461Z,12.00
2023-04-18T07:51:35.938Z,12.25
2023-04-18T07:55:37.678Z,12.55
2023-04-18T07:59:39.377Z,12.73
2023-04-18T08:03:41.675Z,12.63
2023-04-18T08:07:43.561Z,14.43
2023-04-18T08:11:45.197Z,12.85
2023-04-18T08:15:47.250Z,13.75
2023-04-18T08:19:48.947Z,12.40
2023-04-18T08:23:50.604Z,10.93
2023-04-18T08:27:52.280Z,10.60
2023-04-18T08:31:54.145Z,11.32
2023-04-18T08:35:56.034Z,13.35
2023-04-18T08:39:57.690Z,11.32
2023-04-18T08:43:59.570Z,15.13
2023-04-18T08:48:03.779Z,12.35
2023-04-18T08:52:16.768Z,12.68
2023-04-18T08:56:22.176Z,16.05
2023-04-18T09:00:23.911Z,12.57
2023-04-18T09:04:45.260Z,17.42
2023-04-18T09:09:03.768Z,13.40
2023-04-18T09:13:05.494Z,15.00
2023-04-18T09:17:07.255Z,14.32
2023-04-18T09:21:19.327Z,14.82
2023-04-18T09:25:46.271Z,16.58
2023-04-18T09:29:55.244Z,14.05
2023-04-18T09:34:24.737Z,15.23
2023-04-18T09:38:40.709Z,15.50
2023-04-18T09:42:42.755Z,17.55
2023-04-18T09:46:47.439Z,17.37
2023-04-18T09:50:50.779Z,15.77
2023-04-18T09:55:01.980Z,15.82
2023-04-18T09:59:09.286Z,16.42
2023-04-18T10:03:13.333Z,14.20
2023-04-18T10:07:17.267Z,17.40
2023-04-18T10:11:20.326Z,16.70
2023-04-18T10:15:24.716Z,15.30
2023-04-18T10:19:28.418Z,13.77
2023-04-18T10:23:35.925Z,14.50
2023-04-18T10:27:57.293Z,16.20
2023-04-18T10:32:06.086Z,13.95
2023-04-18T10:36:13.566Z,15.15
2023-04-18T10:40:15.602Z,15.98
2023-04-18T10:44:22.764Z,14.45
2023-04-18T10:48:29.382Z,17.05
2023-04-18T10:52:31.729Z,15.13
2023-04-18T10:56:33.396Z,13.80
2023-04-18T11:00:35.455Z,13.40
2023-04-18T11:04:37.879Z,15.23
2023-04-18T11:08:39.635Z,16.17
2023-04-18T11:12:41.749Z,15.70
2023-04-18T11:16:43.482Z,15.02
2023-04-18T11:20:50.609Z,15.77
2023-04-18T11:24:57.006Z,15.90
2023-04-18T11:28:58.916Z,16.60
2023-04-18T11:33:08.457Z,15.20
2023-04-18T11:37:10.553Z,16.12
2023-04-18T11:41:14.389Z,18.25
2023-04-18T11:45:16.237Z,17.98
2023-04-18T11:49:29.215Z,14.68
2023-04-18T11:53:38.697Z,13.68
2023-04-18T11:57:41.745Z,12.82
2023-04-18T12:01:43.842Z,14.32
2023-04-18T12:05:45.870Z,13.90
2023-04-18T12:09:47.672Z,15.38
2023-04-18T12:13:49.327Z,12.07
2023-04-18T12:22:06.559Z,16.95
2023-04-18T12:26:20.963Z,17.95
2023-04-18T12:30:25.447Z,14.27
2023-04-18T12:34:27.444Z,16.67
2023-04-18T12:38:29.119Z,16.55
2023-04-18T12:42:30.884Z,17.37
2023-04-18T12:46:32.742Z,16.35
2023-04-18T12:50:34.871Z,19.00
2023-04-18T12:54:38.069Z,17.37
2023-04-18T12:58:40.414Z,17.37
2023-04-18T13:02:44.400Z,16.65
2023-04-18T13:06:46.151Z,14.43
2023-04-18T13:10:47.938Z,15.20
2023-04-18T13:14:49.601Z,15.75
2023-04-18T13:18:51.250Z,13.20
2023-04-18T13:22:52.892Z,12.90
2023-04-18T13:26:55.144Z,12.20
2023-04-18T13:30:56.795Z,12.02
2023-04-18T13:34:58.403Z,13.77
2023-04-18T13:39:00.169Z,15.20
2023-04-18T13:43:01.874Z,12.68
2023-04-18T13:47:05.036Z,14.50
2023-04-18T13:51:06.977Z,13.55
2023-04-18T13:55:10.380Z,17.87
2023-04-18T13:59:12.170Z,14.50
2023-04-18T14:03:14.204Z,12.80
2023-04-18T14:07:16.419Z,13.82
2023-04-18T14:11:18.078Z,11.60
2023-04-18T14:15:19.740Z,12.25
2023-04-18T14:19:21.410Z,13.75
2023-04-18T14:23:23.129Z,11.98
2023-04-18T14:27:25.975Z,12.68
2023-04-18T14:31:28.089Z,12.20
2023-04-18T14:35:30.669Z,14.45
2023-04-18T14:39:32.342Z,11.88
2023-04-18T14:43:34.053Z,11.77
2023-04-18T14:47:35.740Z,11.52
2023-04-18T14:51:37.497Z,12.73
2023-04-18T14:55:39.176Z,13.15
2023-04-18T14:59:40.895Z,12.30
2023-04-18T15:03:42.878Z,13.85
2023-04-18T15:07:45.057Z,13.62
2023-04-18T15:11:46.765Z,12.40
2023-04-18T15:15:56.048Z,12.80
2023-04-18T15:19:58.825Z,14.60
2023-04-18T15:24:00.523Z,12.93
2023-04-18T15:28:02.167Z,14.25
2023-04-18T15:32:04.953Z,12.68
2023-04-18T15:36:06.905Z,14.70
2023-04-18T15:40:11.113Z,13.27
2023-04-18T15:44:13.413Z,13.60
2023-04-18T15:48:15.254Z,14.02
2023-04-18T15:52:17.043Z,14.48
2023-04-18T15:56:18.694Z,14.75
2023-04-18T16:00:20.929Z,16.05
2023-04-18T16:04:23.683Z,15.68
2023-04-18T16:08:25.352Z,14.07
2023-04-18T16:12:27.007Z,15.43
2023-04-18T16:16:28.769Z,15.00
2023-04-18T16:20:33.040Z,14.87
2023-04-18T16:24:34.739Z,17.83
2023-04-18T16:28:39.350Z,14.85
2023-04-18T16:32:41.034Z,14.80
2023-04-18T16:36:42.884Z,14.43
2023-04-18T16:40:44.513Z,16.45
2023-04-18T16:44:47.157Z,14.98
2023-04-18T16:48:51.107Z,14.77
2023-04-18T16:52:53.991Z,15.30
2023-04-18T16:56:55.702Z,24.27
2023-04-18T17:00:57.347Z,39.80
2023-04-18T17:04:59.042Z,13.85
2023-04-18T17:09:00.749Z,15.93
2023-04-18T17:13:03.549Z,23.50
2023-04-18T17:17:05.551Z,15.18
2023-04-18T17:21:07.223Z,14.77
2023-04-18T17:25:09.259Z,14.82
2023-04-18T17:29:10.909Z,13.52
2023-04-18T17:33:12.560Z,15.25
2023-04-18T17:37:15.799Z,14.45
2023-04-18T17:41:18.603Z,14.57
2023-04-18T17:45:21.185Z,16.45
2023-04-18T17:49:22.831Z,15.23
2023-04-18T17:53:24.478Z,15.93
2023-04-18T17:57:26.661Z,14.00
2023-04-18T18:01:30.212Z,16.02
2023-04-18T18:05:32.049Z,15.30
2023-04-18T18:09:33.837Z,15.40
2023-04-18T18:13:35.626Z,16.65
2023-04-18T18:17:38.027Z,18.15
2023-04-18T18:21:39.662Z,15.52
2023-04-18T18:25:41.521Z,16.33
2023-04-18T18:29:43.169Z,17.40
2023-04-18T18:33:44.890Z,16.33
2023-04-18T18:37:46.589Z,18.20
2023-04-18T18:41:48.210Z,16.75
2023-04-18T18:45:49.916Z,16.65
2023-04-18T18:49:51.598Z,17.75
2023-04-18T18:53:53.274Z,16.67
2023-04-18T18:57:55.017Z,17.08
2023-04-18T19:01:56.848Z,16.42
2023-04-18T19:05:58.612Z,17.92
2023-04-18T19:10:01.496Z,16.67
2023-04-18T19:14:03.269Z,16.92
2023-04-18T19:18:04.956Z,16.05
2023-04-18T19:22:06.741Z,18.02
2023-04-18T19:26:09.259Z,15.60
2023-04-18T19:30:11.826Z,15.43
2023-04-18T19:34:13.626Z,15.63
2023-04-18T19:38:15.346Z,14.87
2023-04-18T19:42:17.048Z,15.60
2023-04-18T19:46:18.762Z,16.15
2023-04-18T19:50:20.385Z,15.82
2023-04-18T19:54:22.249Z,14.90
2023-04-18T19:58:44.561Z,15.43
2023-04-18T20:02:46.335Z,15.05
2023-04-18T20:06:48.108Z,16.00
2023-04-18T20:10:49.802Z,15.38
2023-04-18T20:14:51.792Z,18.23
2023-04-18T20:18:55.058Z,15.38
2023-04-18T20:22:56.839Z,14.65
2023-04-18T20:26:59.423Z,16.10
2023-04-18T20:31:01.483Z,14.98
2023-04-18T20:35:04.215Z,16.05
2023-04-18T20:39:06.127Z,15.20
2023-04-18T20:43:08.035Z,15.48
2023-04-18T20:47:10.562Z,15.30
2023-04-18T20:51:12.605Z,16.52
2023-04-18T20:55:17.172Z,14.80
2023-04-18T20:59:19.401Z,15.35
2023-04-18T21:03:21.248Z,16.87
2023-04-18T21:07:23.562Z,14.63
2023-04-18T21:11:25.555Z,17.17
2023-04-18T21:15:27.420Z,15.85
2023-04-18T21:19:29.184Z,16.50
2023-04-18T21:23:30.901Z,15.07
2023-04-18T21:27:32.607Z,14.80
2023-04-18T21:31:35.273Z,15.10
2023-04-18T21:35:36.990Z,16.50
2023-04-18T21:39:38.641Z,15.13
2023-04-18T21:43:40.862Z,14.75
2023-04-18T21:47:43.141Z,14.85
2023-04-18T21:51:45.252Z,14.95
2023-04-18T21:55:46.969Z,14.65
2023-04-18T21:59:48.681Z,16.75
2023-04-18T22:03:50.553Z,15.95
2023-04-18T22:07:58.176Z,16.15
2023-04-18T22:12:00.206Z,16.20
2023-04-18T22:16:02.981Z,15.80
2023-04-18T22:20:05.774Z,16.92
2023-04-18T22:24:08.176Z,15.82
2023-04-18T22:28:09.873Z,16.08
2023-04-18T22:32:11.483Z,15.93
2023-04-18T22:36:13.531Z,16.80
2023-04-18T22:40:16.343Z,16.10
2023-04-18T22:44:18.050Z,16.40
2023-04-18T22:48:20.759Z,16.05
2023-04-18T22:52:24.708Z,17.65
2023-04-18T22:56:26.425Z,17.02
2023-04-18T23:00:28.112Z,18.10
2023-04-18T23:04:32.173Z,18.48
2023-04-18T23:08:33.979Z,17.70
2023-04-18T23:12:35.743Z,17.65
2023-04-18T23:16:37.675Z,19.65
2023-04-18T23:20:39.541Z,17.05
2023-04-18T23:24:41.247Z,17.30
2023-04-18T23:28:42.986Z,16.15
2023-04-18T23:32:44.698Z,18.45
2023-04-18T23:36:46.547Z,17.25
2023-04-18T23:40:48.311Z,16.75
2023-04-18T23:44:50.219Z,18.65
2023-04-18T23:48:52.474Z,17.87
2023-04-18T23:52:54.211Z,20.20
2023-04-18T23:56:57.005Z,19.62
